Terminal Aerodrome Forecast
Issued by NWS Cleveland, OH

Home | Current Version | Previous Version | Graphics & Text | Print | Product List | Glossary On
Versions: 1 2 3 4 5 6 7 8 9 10 11 12 13 14 15 16 17 18 19
000
FTUS41 KCLE 180900 AAA
TAFYNG
TAF AMD
KYNG 180956Z 1810/1906 00000KT 3SM BR SKC
      TEMPO 1810/1812 1SM BR SCT001
     FM181200 01006KT P6SM SCT045=

USA.gov is the U.S. government's official web portal to all federal, state and local government web resources and services.